Time;durP1;ratioP1;P1;durP2;ratioP2;P2;SDS_P1;SDS_P2;PMS_P1;PMS_P2;Temp;Humidity;BMP_temperature;BMP_pressure;BME280_temperature;BME280_humidity;BME280_pressure;Samples;Min_cycle;Max_cycle;Signal;HPM_P1;HPM_P2
2024/01/24 00:02:16;;;;;;;24.00;13.70;;;;;;;-147.86;100.00;6207.17;105658;1256;72711;-46
2024/01/24 00:04:43;;;;;;;22.40;13.70;;;;;;;-147.86;100.00;6236.26;105651;1256;59711;-45
2024/01/24 00:07:11;;;;;;;23.40;14.40;;;;;;;-147.86;100.00;6235.10;105684;1253;59709;-46
2024/01/24 00:09:39;;;;;;;24.60;14.10;;;;;;;-147.86;100.00;6262.25;105625;1258;72128;-45
2024/01/24 00:12:06;;;;;;;25.90;14.40;;;;;;;-147.86;100.00;6286.69;105698;1253;64001;-45
2024/01/24 00:14:34;;;;;;;25.50;13.70;;;;;;;-147.86;100.00;6309.20;105665;1256;71406;-47
2024/01/24 00:17:03;;;;;;;26.30;14.30;;;;;;;-147.86;100.00;6369.70;105658;1256;59747;-46
2024/01/24 00:19:31;;;;;;;24.30;14.20;;;;;;;-147.86;100.00;6322.77;105672;1258;59993;-46
2024/01/24 00:21:59;;;;;;;25.50;14.50;;;;;;;-147.86;100.00;6321.61;105645;1253;71796;-45
2024/01/24 00:24:27;;;;;;;24.40;14.60;;;;;;;-147.86;100.00;6330.52;105642;1254;64703;-45
2024/01/24 00:26:54;;;;;;;32.90;14.40;;;;;;;-147.86;100.00;6322.37;105658;1258;72682;-46
2024/01/24 00:29:23;;;;;;;24.20;13.60;;;;;;;-147.86;100.00;6413.91;105628;1255;59762;-45
2024/01/24 00:31:50;;;;;;;31.20;15.80;;;;;;;-147.86;100.00;6410.83;105704;1258;59636;-45
2024/01/24 00:34:18;;;;;;;30.40;15.20;;;;;;;-147.86;100.00;6504.69;105474;1253;72000;-46
2024/01/24 00:36:46;;;;;;;26.30;14.90;;;;;;;-147.86;100.00;6567.92;105706;1253;64320;-45
2024/01/24 00:39:14;;;;;;;25.00;14.20;;;;;;;-147.86;100.00;6552.41;105658;1256;71412;-45
2024/01/24 00:41:42;;;;;;;24.10;14.70;;;;;;;-147.86;100.00;6524.48;105697;1253;59978;-45
2024/01/24 00:44:10;;;;;;;23.40;14.60;;;;;;;-147.86;100.00;6577.22;105642;1258;59559;-46
2024/01/24 00:46:38;;;;;;;32.40;16.00;;;;;;;-147.86;100.00;6550.46;105619;1258;73030;-46
2024/01/24 00:49:10;;;;;;;28.30;16.10;;;;;;;-147.86;100.00;6526.01;105649;1253;63990;-45
2024/01/24 00:51:38;;;;;;;29.90;15.00;;;;;;;-147.86;100.00;6179.36;105668;1259;71417;-45
2024/01/24 00:54:05;;;;;;;22.90;14.80;;;;;;;-147.86;100.00;6458.90;105663;1255;59668;-45
2024/01/24 00:56:33;;;;;;;28.40;15.80;;;;;;;-147.86;100.00;6481.81;105637;1258;59568;-46
2024/01/24 00:59:02;;;;;;;33.90;16.20;;;;;;;-147.86;100.00;6531.44;105632;1259;72069;-45
2024/01/24 01:01:30;;;;;;;25.90;16.10;;;;;;;-147.86;100.00;6482.98;105677;1253;64152;-46
2024/01/24 01:03:57;;;;;;;25.70;14.10;;;;;;;-147.86;100.00;6507.00;105692;1258;71495;-45
2024/01/24 01:06:26;;;;;;;26.40;14.60;;;;;;;-147.86;100.00;6401.49;105661;1255;59852;-45
2024/01/24 01:10:06;;;;;;;;;;;;;;;-147.86;100.00;35545.07;102771;1293;600335;-46
2024/01/24 01:12:34;;;;;;;27.20;15.10;;;;;;;-147.86;100.00;11306.30;104863;1267;59421;-46
2024/01/24 01:15:03;;;;;;;28.80;16.40;;;;;;;-147.86;100.00;7056.17;104850;1270;59263;-45
2024/01/24 01:17:31;;;;;;;30.40;15.20;;;;;;;-147.86;100.00;2613.03;104842;1264;72443;-45
2024/01/24 01:19:59;;;;;;;24.20;15.00;;;;;;;-147.86;100.00;-878.92;104871;1270;63932;-45
2024/01/24 01:22:27;;;;;;;30.80;15.80;;;;;;;-147.86;100.00;-3043.03;104866;1270;71392;-45
2024/01/24 01:24:54;;;;;;;26.40;15.60;;;;;;;-147.86;100.00;-3483.74;104868;1269;232115;-46
2024/01/24 01:27:26;;;;;;;32.10;15.30;;;;;;;-147.86;100.00;-3110.64;105219;1269;59416;-46
2024/01/24 01:29:54;;;;;;;31.00;16.60;;;;;;;-147.86;100.00;-2359.10;105058;1268;70977;-46
2024/01/24 01:32:22;;;;;;;29.70;15.70;;;;;;;-147.86;100.00;-1707.67;105103;1269;64014;-46
2024/01/24 01:34:50;;;;;;;30.30;15.90;;;;;;;-147.86;100.00;-1113.84;105074;1268;72616;-46
2024/01/24 01:37:18;;;;;;;25.50;15.40;;;;;;;-147.86;100.00;-708.85;105128;1264;59703;-45
2024/01/24 01:39:46;;;;;;;31.80;16.00;;;;;;;-147.86;100.00;-233.74;105198;1264;60207;-45
2024/01/24 01:42:14;;;;;;;30.00;17.60;;;;;;;-147.86;100.00;78.01;105268;1263;71773;-46
2024/01/24 01:44:49;;;;;;;27.10;15.30;;;;;;;-147.86;100.00;470.32;105009;1269;64629;-47
2024/01/24 01:47:16;;;;;;;26.10;15.10;;;;;;;-147.86;100.00;398.04;105650;1261;72092;-46
2024/01/24 01:49:44;;;;;;;25.00;15.30;;;;;;;-147.86;100.00;1010.65;105753;1262;59740;-46
2024/01/24 01:52:12;;;;;;;28.50;15.20;;;;;;;-147.86;100.00;1262.06;105646;1259;59795;-45
2024/01/24 01:54:41;;;;;;;28.40;15.60;;;;;;;-147.86;100.00;1487.90;105661;1254;71830;-45
2024/01/24 01:57:11;;;;;;;25.50;15.40;;;;;;;-147.86;100.00;1570.06;105679;1254;62938;-46
2024/01/24 01:59:43;;;;;;;24.50;14.90;;;;;;;-147.86;100.00;1579.80;105642;1254;72601;-46
2024/01/24 02:02:11;;;;;;;20.70;13.40;;;;;;;-147.86;100.00;1768.48;105630;1256;59765;-46
2024/01/24 02:04:39;;;;;;;27.30;15.00;;;;;;;-147.86;100.00;2080.69;105679;1260;59549;-46
2024/01/24 02:07:07;;;;;;;29.40;15.90;;;;;;;-147.86;100.00;2195.39;105614;1260;73034;-46
2024/01/24 02:09:35;;;;;;;24.90;15.50;;;;;;;-147.86;100.00;2409.29;105662;1262;63912;-45
2024/01/24 02:12:03;;;;;;;34.20;17.20;;;;;;;-147.86;100.00;2495.70;105677;1262;71388;-46
2024/01/24 02:14:32;;;;;;;24.10;14.70;;;;;;;-147.86;100.00;2622.03;105669;1260;59823;-46
2024/01/24 02:16:59;;;;;;;24.40;14.70;;;;;;;-147.86;100.00;2737.90;105689;1261;59636;-45
2024/01/24 02:19:27;;;;;;;26.10;14.10;;;;;;;-147.86;100.00;2862.68;105642;1261;72092;-45
2024/01/24 02:48:08;;;;;;;;;;;;;;;-147.86;100.00;21053.57;102683;1290;601216;-45
2024/01/24 02:50:36;;;;;;;32.60;14.90;;;;;;;-147.86;100.00;2316.11;104855;1266;59287;-46
2024/01/24 02:53:04;;;;;;;32.20;15.20;;;;;;;-147.86;100.00;2882.06;105139;1267;59345;-45
2024/01/24 02:55:32;;;;;;;29.00;15.10;;;;;;;-147.86;100.00;3007.24;105121;1267;72279;-46
2024/01/24 02:58:00;;;;;;;29.40;14.60;;;;;;;-147.86;100.00;3050.26;105198;1262;63437;-46
2024/01/24 03:00:29;;;;;;;30.20;15.20;;;;;;;-147.86;100.00;3113.43;105105;1263;71381;-46
2024/01/24 03:02:57;;;;;;;24.70;14.20;;;;;;;-147.86;100.00;3039.45;105032;1265;311519;-46
2024/01/24 03:05:24;;;;;;;30.60;14.60;;;;;;;-147.86;100.00;3198.32;108977;1259;58807;-45
2024/01/24 03:07:53;;;;;;;35.60;15.90;;;;;;;-147.86;100.00;3292.10;108991;1259;72234;-44
2024/01/24 03:10:25;;;;;;;23.30;13.90;;;;;;;-147.86;100.00;3281.26;109016;1259;65138;-45
2024/01/24 03:12:53;;;;;;;29.00;13.90;;;;;;;-147.86;100.00;2999.62;108952;1259;72627;-45
2024/01/24 03:15:22;;;;;;;25.20;14.70;;;;;;;-147.86;100.00;3347.16;108981;1259;58095;-45
2024/01/24 03:17:49;;;;;;;23.60;13.30;;;;;;;-147.86;100.00;3421.58;108948;1259;60009;-45
2024/01/24 03:20:17;;;;;;;27.30;14.40;;;;;;;-147.86;100.00;3525.83;108985;1259;72987;-46
2024/01/24 03:22:44;;;;;;;26.20;14.70;;;;;;;-147.86;100.00;3533.58;109026;1259;65121;-45
2024/01/24 03:25:15;;;;;;;27.50;13.80;;;;;;;-147.86;100.00;3526.99;108988;1259;72727;-46
2024/01/24 03:27:43;;;;;;;28.00;14.50;;;;;;;-147.86;100.00;3318.16;108958;1260;59464;-45
2024/01/24 03:30:11;;;;;;;27.00;13.00;;;;;;;-147.86;100.00;3562.66;109020;1259;60011;-45
2024/01/24 03:32:38;;;;;;;29.60;14.50;;;;;;;-147.86;100.00;3564.22;108926;1259;73014;-45
2024/01/24 03:35:07;;;;;;;28.30;14.90;;;;;;;-147.86;100.00;3637.86;108998;1259;64068;-45
2024/01/24 03:37:34;;;;;;;24.90;13.70;;;;;;;-147.86;100.00;3584.01;108967;1259;72265;-46
2024/01/24 03:40:03;;;;;;;32.40;15.80;;;;;;;-147.86;100.00;3680.11;109006;1259;57993;-45
2024/01/24 03:42:31;;;;;;;29.60;13.10;;;;;;;-147.86;100.00;3608.05;108980;1259;59246;-45
2024/01/24 03:47:51;;;;;;;;;;;;;;;-147.86;100.00;21473.32;102795;1294;599750;-44
2024/01/24 03:50:20;;;;;;;26.80;14.40;;;;;;;-147.86;100.00;3384.97;105136;1265;59276;-46
2024/01/24 03:52:47;;;;;;;29.70;14.50;;;;;;;-147.86;100.00;3793.32;105000;1269;59297;-46
2024/01/24 03:55:15;;;;;;;31.60;14.00;;;;;;;-147.86;100.00;3903.01;104980;1269;72166;-45
2024/01/24 03:57:43;;;;;;;32.10;15.30;;;;;;;-147.86;100.00;3999.93;105033;1269;65097;-45
2024/01/24 04:00:12;;;;;;;27.20;14.50;;;;;;;-147.86;100.00;4053.44;105059;1268;71418;-45
2024/01/24 04:02:40;;;;;;;23.30;14.00;;;;;;;-147.86;100.00;4064.70;105076;1266;208195;-45
2024/01/24 04:05:10;;;;;;;27.90;14.40;;;;;;;-147.86;100.00;4203.09;105274;1266;59365;-46
2024/01/24 04:07:38;;;;;;;32.20;15.50;;;;;;;-147.86;100.00;4176.78;105237;1267;72115;-46
2024/01/24 04:10:06;;;;;;;28.20;15.40;;;;;;;-147.86;100.00;4406.61;105220;1267;65102;-46
2024/01/24 04:12:34;;;;;;;31.80;15.90;;;;;;;-147.86;100.00;4484.18;108862;1262;71578;-46
2024/01/24 04:15:02;;;;;;;28.70;16.20;;;;;;;-147.86;100.00;4609.39;108879;1263;60840;-44
2024/01/24 04:17:30;;;;;;;29.30;16.10;;;;;;;-147.86;100.00;4633.45;108905;1262;59983;-43
2024/01/24 04:19:58;;;;;;;35.50;15.20;;;;;;;-147.86;100.00;4706.33;109111;1260;73051;-43
2024/01/24 04:22:25;;;;;;;30.40;16.30;;;;;;;-147.86;100.00;4779.21;109034;1260;64006;-44
2024/01/24 04:24:53;;;;;;;35.60;16.60;;;;;;;-147.86;100.00;4825.74;109091;1259;72626;-45
2024/01/24 04:27:22;;;;;;;35.70;17.10;;;;;;;-147.86;100.00;4839.32;109076;1259;59680;-44
2024/01/24 04:29:50;;;;;;;35.90;17.00;;;;;;;-147.86;100.00;4819.18;109066;1260;60118;-46
2024/01/24 04:32:17;;;;;;;35.10;16.70;;;;;;;-147.86;100.00;4930.05;109042;1260;71748;-45
2024/01/24 04:34:45;;;;;;;30.30;16.60;;;;;;;-147.86;100.00;4969.60;109078;1260;65137;-45
2024/01/24 04:37:13;;;;;;;32.30;16.10;;;;;;;-147.86;100.00;4932.02;109108;1259;71742;-45
2024/01/24 04:39:41;;;;;;;33.00;15.70;;;;;;;-147.86;100.00;5042.50;109093;1260;59456;-44
2024/01/24 04:42:09;;;;;;;39.30;15.60;;;;;;;-147.86;100.00;5106.49;109129;1260;58765;-49
2024/01/24 04:47:42;;;;;;;;;;;;;;;-147.86;100.00;22246.77;102929;1292;601030;-45
2024/01/24 04:50:12;;;;;;;29.90;15.40;;;;;;;-147.86;100.00;4758.14;105572;1263;59331;-46
2024/01/24 04:52:39;;;;;;;32.90;16.20;;;;;;;-147.86;100.00;5170.12;105559;1258;59960;-46
2024/01/24 04:55:11;;;;;;;36.40;16.40;;;;;;;-147.86;100.00;5321.32;105552;1263;70776;-45
2024/01/24 04:57:40;;;;;;;31.90;17.10;;;;;;;-147.86;100.00;5027.14;105569;1261;64083;-46
2024/01/24 05:00:09;;;;;;;30.70;16.60;;;;;;;-147.86;100.00;5312.04;105516;1260;71404;-45
2024/01/24 05:02:37;;;;;;;33.10;16.20;;;;;;;-147.86;100.00;5318.27;105516;1260;59698;-46
2024/01/24 05:05:06;;;;;;;29.60;15.70;;;;;;;-147.86;100.00;5491.97;105689;1256;59934;-46
2024/01/24 05:07:35;;;;;;;29.40;15.60;;;;;;;-147.86;100.00;5423.78;105687;1254;70966;-46
2024/01/24 05:10:03;;;;;;;30.70;17.00;;;;;;;-147.86;100.00;5663.76;105654;1260;63905;-46
2024/01/24 05:12:31;;;;;;;26.70;15.30;;;;;;;-147.86;100.00;5644.40;105676;1259;71378;-45
2024/01/24 05:14:59;;;;;;;31.70;17.30;;;;;;;-147.86;100.00;5711.48;105635;1259;59744;-45
2024/01/24 05:17:27;;;;;;;35.60;17.10;;;;;;;-147.86;100.00;5776.24;105610;1260;59698;-45
2024/01/24 05:19:55;;;;;;;32.70;16.30;;;;;;;-147.86;100.00;5842.17;105628;1255;71743;-47
2024/01/24 05:22:22;;;;;;;28.50;16.60;;;;;;;-147.86;100.00;5892.98;105669;1259;65158;-46
2024/01/24 05:24:50;;;;;;;30.30;16.40;;;;;;;-147.86;100.00;5955.42;105605;1260;72668;-45
2024/01/24 05:27:18;;;;;;;29.40;16.50;;;;;;;-147.86;100.00;5936.44;105688;1254;59877;-47
2024/01/24 05:29:47;;;;;;;32.80;17.60;;;;;;;-147.86;100.00;6005.85;105615;1254;60097;-46
2024/01/24 05:32:15;;;;;;;36.20;16.50;;;;;;;-147.86;100.00;5940.71;105708;1254;72971;-45
2024/01/24 05:34:42;;;;;;;26.00;15.60;;;;;;;-147.86;100.00;6003.13;105681;1257;64520;-45
2024/01/24 05:37:11;;;;;;;24.50;15.10;;;;;;;-147.86;100.00;5948.46;105634;1260;71740;-46
2024/01/24 05:39:41;;;;;;;33.50;16.40;;;;;;;-147.86;100.00;5990.71;105649;1255;59835;-45
2024/01/24 05:42:10;;;;;;;34.60;18.10;;;;;;;-147.86;100.00;5724.38;105684;1257;59629;-46
2024/01/24 05:44:38;;;;;;;36.40;18.20;;;;;;;-147.86;100.00;5948.84;105629;1260;71783;-46
2024/01/24 05:47:06;;;;;;;30.70;17.00;;;;;;;-147.86;100.00;5959.70;105589;1260;63372;-46
2024/01/24 06:46:29;;;;;;;;;;;;;;;-147.86;100.00;21078.62;102705;1293;600166;-44
2024/01/24 06:48:57;;;;;;;30.90;17.00;;;;;;;-147.86;100.00;3086.59;104871;1270;59270;-46
2024/01/24 06:51:25;;;;;;;35.20;17.80;;;;;;;-147.86;100.00;3796.85;104887;1272;59330;-46
2024/01/24 06:53:52;;;;;;;32.40;18.00;;;;;;;-147.86;100.00;4066.24;105011;1269;72132;-46
2024/01/24 06:56:21;;;;;;;31.20;17.90;;;;;;;-147.86;100.00;4157.72;105026;1267;64020;-45
2024/01/24 06:58:49;;;;;;;31.60;17.30;;;;;;;-147.86;100.00;4097.27;105032;1267;71605;-46
2024/01/24 07:01:16;;;;;;;25.90;15.30;;;;;;;-147.86;100.00;4178.28;105023;1267;199339;-46
2024/01/24 07:03:44;;;;;;;30.40;17.50;;;;;;;-147.86;100.00;4205.42;105245;1264;62237;-46
2024/01/24 07:06:12;;;;;;;30.00;16.60;;;;;;;-147.86;100.00;4220.16;105153;1264;72114;-45
2024/01/24 07:08:40;;;;;;;30.70;17.00;;;;;;;-147.86;100.00;4291.88;105128;1263;66718;-45
2024/01/24 07:11:09;;;;;;;29.80;17.00;;;;;;;-147.86;100.00;4341.12;105221;1266;73117;-45
2024/01/24 07:13:37;;;;;;;28.20;15.60;;;;;;;-147.86;100.00;4326.78;105643;1259;60123;-46
2024/01/24 07:16:07;;;;;;;27.20;16.30;;;;;;;-147.86;100.00;4372.93;105556;1257;59794;-46
2024/01/24 07:18:35;;;;;;;29.90;17.50;;;;;;;-147.86;100.00;4314.05;105599;1256;73337;-45
2024/01/24 07:21:06;;;;;;;33.60;18.20;;;;;;;-147.86;100.00;4467.52;105515;1260;67107;-46
2024/01/24 07:23:34;;;;;;;30.50;17.40;;;;;;;-147.86;100.00;4319.11;105608;1258;72619;-45
2024/01/24 07:26:02;;;;;;;31.60;17.80;;;;;;;-147.86;100.00;4522.56;105629;1260;59702;-46
2024/01/24 07:28:30;;;;;;;29.20;17.50;;;;;;;-147.86;100.00;4460.95;105630;1259;59516;-47
2024/01/24 07:30:58;;;;;;;31.40;18.30;;;;;;;-147.86;100.00;4573.35;105611;1259;73029;-46
2024/01/24 07:33:26;;;;;;;29.10;18.40;;;;;;;-147.86;100.00;4581.50;105577;1260;65121;-46
2024/01/24 07:35:54;;;;;;;32.10;19.10;;;;;;;-147.86;100.00;4660.22;105609;1258;71404;-45
2024/01/24 07:38:22;;;;;;;31.30;17.50;;;;;;;-147.86;100.00;4722.62;105650;1257;59730;-47
2024/01/24 07:40:49;;;;;;;31.80;18.30;;;;;;;-147.86;100.00;4636.54;105609;1255;60062;-46
2024/01/24 07:43:17;;;;;;;34.30;19.90;;;;;;;-147.86;100.00;4543.88;105587;1258;73123;-47
2024/01/24 07:45:46;;;;;;;36.60;18.20;;;;;;;-147.86;100.00;4409.37;105621;1263;64085;-46
2024/01/24 07:48:14;;;;;;;34.00;19.30;;;;;;;-147.86;100.00;4255.04;105603;1260;71400;-46
2024/01/24 07:50:43;;;;;;;35.60;18.60;;;;;;;-147.86;100.00;3968.58;105620;1260;59752;-47
2024/01/24 07:53:11;;;;;;;34.00;19.10;;;;;;;-147.86;100.00;3937.15;105612;1261;59555;-45
2024/01/24 07:55:39;;;;;;;33.80;19.90;;;;;;;-147.86;100.00;3809.25;105629;1263;71767;-47
2024/01/24 07:58:25;;;;;;;38.00;21.20;;;;;;;-147.86;100.00;2643.16;105561;1260;65323;-46
2024/01/24 08:00:54;;;;;;;36.40;19.80;;;;;;;-147.86;100.00;3622.01;105609;1261;71457;-46
2024/01/24 08:03:22;;;;;;;36.30;18.60;;;;;;;-147.86;100.00;3506.15;105661;1255;59772;-46
2024/01/24 08:05:51;;;;;;;32.90;18.80;;;;;;;-147.86;100.00;3544.48;105626;1263;59688;-45
2024/01/24 08:08:19;;;;;;;42.90;20.80;;;;;;;-147.86;100.00;3427.86;105563;1257;73000;-46
2024/01/24 08:10:48;;;;;;;42.40;20.50;;;;;;;-147.86;100.00;3508.45;105610;1260;64072;-46
2024/01/24 08:13:16;;;;;;;36.60;20.30;;;;;;;-147.86;100.00;3471.99;105626;1258;71359;-46
2024/01/24 08:15:45;;;;;;;33.80;18.30;;;;;;;-147.86;100.00;3345.26;105607;1260;60004;-47
2024/01/24 08:18:14;;;;;;;34.30;19.90;;;;;;;-147.86;100.00;3275.54;105606;1260;59587;-46
2024/01/24 08:20:41;;;;;;;37.50;19.00;;;;;;;-147.86;100.00;3392.97;105616;1260;73098;-46
2024/01/24 08:23:09;;;;;;;41.40;19.00;;;;;;;-147.86;100.00;3586.36;105597;1257;65296;-45
2024/01/24 08:25:37;;;;;;;41.80;19.50;;;;;;;-147.86;100.00;3704.58;105596;1263;71400;-47
2024/01/24 08:28:05;;;;;;;32.30;17.30;;;;;;;-147.86;100.00;3730.57;105584;1257;59845;-46
2024/01/24 08:30:33;;;;;;;31.80;18.20;;;;;;;-147.86;100.00;3859.65;105624;1257;60565;-46
2024/01/24 08:33:00;;;;;;;33.20;16.80;;;;;;;-147.86;100.00;3864.31;105637;1260;72927;-46
2024/01/24 08:35:29;;;;;;;37.20;17.90;;;;;;;-147.86;100.00;3874.77;105595;1260;67510;-46
2024/01/24 08:37:57;;;;;;;33.90;17.90;;;;;;;-147.86;100.00;3909.67;105623;1257;71345;-46
2024/01/24 08:40:24;;;;;;;33.80;17.90;;;;;;;-147.86;100.00;3980.60;105577;1263;59798;-46
2024/01/24 08:42:52;;;;;;;28.00;14.50;;;;;;;-147.86;100.00;4104.65;105611;1260;60326;-46
2024/01/24 08:45:20;;;;;;;29.40;15.20;;;;;;;-147.86;100.00;4091.09;105576;1260;73021;-45
2024/01/24 08:47:48;;;;;;;25.40;15.00;;;;;;;-147.86;100.00;3997.25;105619;1257;63967;-47
2024/01/24 08:50:15;;;;;;;24.10;14.00;;;;;;;-147.86;100.00;3789.09;105583;1257;72356;-48
2024/01/24 08:52:43;;;;;;;16.20;10.40;;;;;;;-147.86;100.00;3783.67;105625;1258;59665;-45
2024/01/24 08:55:13;;;;;;;16.00;9.30;;;;;;;-147.86;100.00;3596.43;105583;1260;62254;-44
2024/01/24 08:57:43;;;;;;;14.80;9.20;;;;;;;-147.86;100.00;3170.18;105616;1257;72892;-48
2024/01/24 09:00:12;;;;;;;12.30;8.50;;;;;;;-147.86;100.00;3315.48;105649;1260;65051;-48
2024/01/24 09:02:40;;;;;;;11.00;7.50;;;;;;;-147.86;100.00;3459.67;105607;1263;72861;-47
2024/01/24 09:05:09;;;;;;;12.40;7.90;;;;;;;-147.86;100.00;3257.28;105568;1261;60848;-49
2024/01/24 09:07:37;;;;;;;10.00;6.90;;;;;;;-147.86;100.00;3184.48;105619;1260;61230;-45
2024/01/24 09:10:08;;;;;;;9.80;6.30;;;;;;;-147.86;100.00;3416.67;105603;1262;73341;-46
2024/01/24 09:12:37;;;;;;;8.50;6.00;;;;;;;-147.86;100.00;3829.55;105584;1261;67262;-46
2024/01/24 09:15:06;;;;;;;7.20;5.80;;;;;;;-147.86;100.00;4425.31;105620;1258;71344;-45
2024/01/24 09:17:35;;;;;;;8.00;6.20;;;;;;;-147.86;100.00;4412.89;105600;1260;61965;-46
2024/01/24 09:20:06;;;;;;;6.70;6.00;;;;;;;-147.86;100.00;4202.80;105627;1256;60508;-47
2024/01/24 09:22:34;;;;;;;10.30;5.40;;;;;;;-147.86;100.00;4380.00;105662;1257;72950;-48
2024/01/24 09:25:03;;;;;;;7.90;5.70;;;;;;;-147.86;100.00;4654.41;105606;1260;65101;-47
2024/01/24 09:27:36;;;;;;;8.90;5.80;;;;;;;-147.86;100.00;4313.86;105582;1260;72617;-47
2024/01/24 09:30:05;;;;;;;6.90;5.90;;;;;;;-147.86;100.00;4756.78;105573;1258;60988;-46
2024/01/24 09:32:33;;;;;;;8.10;5.20;;;;;;;-147.86;100.00;4751.01;105623;1262;60488;-45
2024/01/24 09:35:01;;;;;;;9.30;5.50;;;;;;;-147.86;100.00;5172.47;105590;1260;73352;-47
2024/01/24 09:37:29;;;;;;;12.20;6.40;;;;;;;-147.86;100.00;5191.47;105851;1254;63739;-48
2024/01/24 09:39:57;;;;;;;7.00;5.40;;;;;;;-147.86;100.00;5322.14;105924;1254;72505;-46
2024/01/24 09:42:26;;;;;;;8.10;5.80;;;;;;;-147.86;100.00;5570.36;105810;1254;60741;-46
2024/01/24 09:44:54;;;;;;;8.70;6.20;;;;;;;-147.86;100.00;5947.36;105885;1260;59632;-48
2024/01/24 09:47:22;;;;;;;9.80;6.30;;;;;;;-147.86;100.00;6182.41;105688;1257;73185;-47
2024/01/24 09:49:50;;;;;;;9.50;6.70;;;;;;;-147.86;100.00;6374.38;105836;1258;64535;-47
2024/01/24 09:52:23;;;;;;;12.00;6.40;;;;;;;-147.86;100.00;6455.49;105905;1255;72902;-47
2024/01/24 09:54:53;;;;;;;11.20;7.20;;;;;;;-147.86;100.00;6352.89;105916;1257;61017;-47
2024/01/24 09:57:22;;;;;;;8.90;7.00;;;;;;;-147.86;100.00;6853.97;105876;1260;59541;-47
2024/01/24 09:59:50;;;;;;;8.30;6.50;;;;;;;-147.86;100.00;7116.93;105872;1256;74110;-46
2024/01/24 10:02:18;;;;;;;11.70;7.30;;;;;;;-147.86;100.00;7260.49;105928;1257;67671;-47
2024/01/24 10:04:46;;;;;;;9.70;6.90;;;;;;;-147.86;100.00;7544.89;105852;1257;72468;-46
2024/01/24 10:07:14;;;;;;;9.80;6.80;;;;;;;-147.86;100.00;7569.72;105714;1260;63326;-46
2024/01/24 10:09:42;;;;;;;8.30;6.30;;;;;;;-147.86;100.00;7536.33;105869;1257;59850;-46
2024/01/24 10:12:10;;;;;;;13.50;7.00;;;;;;;-147.86;100.00;7521.58;105881;1260;73057;-45
2024/01/24 10:14:40;;;;;;;7.80;6.30;;;;;;;-147.86;100.00;7605.41;105899;1257;67604;-48
2024/01/24 10:17:11;;;;;;;10.10;6.50;;;;;;;-147.86;100.00;7403.40;105677;1263;73708;-46
2024/01/24 10:19:39;;;;;;;10.00;6.40;;;;;;;-147.86;100.00;7558.14;105868;1257;60748;-46
2024/01/24 10:22:07;;;;;;;8.30;6.50;;;;;;;-147.86;100.00;7639.96;105876;1254;60278;-48
2024/01/24 10:24:38;;;;;;;8.40;6.10;;;;;;;-147.86;100.00;7528.68;105735;1260;72600;-51
2024/01/24 10:27:07;;;;;;;11.00;6.70;;;;;;;-147.86;100.00;7420.71;105906;1259;65126;-50
2024/01/24 10:29:38;;;;;;;7.70;5.90;;;;;;;-147.86;100.00;7028.48;105880;1256;74952;-49
2024/01/24 10:32:09;;;;;;;11.20;6.70;;;;;;;-147.86;100.00;6455.56;105906;1254;59697;-48
2024/01/24 10:34:38;;;;;;;9.00;6.50;;;;;;;-147.86;100.00;6011.38;105842;1257;60528;-48
2024/01/24 10:37:06;;;;;;;8.70;6.20;;;;;;;-147.86;100.00;5524.18;105913;1257;72551;-52
2024/01/24 10:39:36;;;;;;;8.90;6.70;;;;;;;-147.86;100.00;5235.30;105896;1260;63895;-52
2024/01/24 10:42:08;;;;;;;9.10;6.80;;;;;;;-147.86;100.00;5012.38;105911;1256;73808;-52
2024/01/24 10:44:42;;;;;;;11.70;6.80;;;;;;;-147.86;100.00;4477.17;105795;1257;63586;-49
2024/01/24 10:47:11;;;;;;;7.10;5.50;;;;;;;-147.86;100.00;4880.57;105786;1260;60073;-47
2024/01/24 10:49:40;;;;;;;7.60;6.00;;;;;;;-147.86;100.00;4715.29;105824;1260;75454;-50
2024/01/24 11:48:17;;;;;;;15.00;7.40;;;;;;;-147.86;100.00;18776.09;102845;1291;600391;-49
2024/01/24 11:50:56;;;;;;;10.90;7.00;;;;;;;-147.86;100.00;3669.33;104869;1269;59587;-52
2024/01/24 11:53:25;;;;;;;12.00;7.50;;;;;;;-147.86;100.00;4149.00;104904;1264;61191;-53
2024/01/24 11:55:55;;;;;;;14.40;7.40;;;;;;;-147.86;100.00;5690.66;104887;1269;72327;-53
2024/01/24 11:58:28;;;;;;;10.30;7.30;;;;;;;-147.86;100.00;6229.89;104866;1269;65139;-52
2024/01/24 12:00:59;;;;;;;9.70;6.80;;;;;;;-147.86;100.00;6717.19;104772;1266;187218;-52
2024/01/24 12:03:27;;;;;;;13.10;7.20;;;;;;;-147.86;100.00;7332.87;105193;1267;59317;-52
2024/01/24 12:05:55;;;;;;;10.70;7.20;;;;;;;-147.86;100.00;8222.09;105188;1267;59479;-49
2024/01/24 12:08:23;;;;;;;11.30;6.80;;;;;;;-147.86;100.00;8812.05;105235;1264;73183;-49
2024/01/24 12:10:51;;;;;;;10.10;7.20;;;;;;;-147.86;100.00;9603.96;105227;1266;66434;-52
2024/01/24 12:13:22;;;;;;;11.10;7.40;;;;;;;-147.86;100.00;10206.53;105201;1269;73704;-49
2024/01/24 12:15:50;;;;;;;13.00;7.30;;;;;;;-147.86;100.00;10435.76;105187;1267;61258;-52
2024/01/24 12:18:19;;;;;;;11.30;7.30;;;;;;;-147.86;100.00;10904.45;105197;1276;61327;-51
2024/01/24 12:20:49;;;;;;;12.20;7.80;;;;;;;-147.86;100.00;11354.92;105205;1267;74167;-54
2024/01/24 12:23:18;;;;;;;11.00;7.10;;;;;;;-147.86;100.00;11447.82;105216;1268;65651;-49
2024/01/24 12:25:46;;;;;;;9.80;7.70;;;;;;;-147.86;100.00;11928.62;105168;1266;74867;-48
2024/01/24 12:28:14;;;;;;;11.00;7.20;;;;;;;-147.86;100.00;12228.50;105883;1252;63052;-49
2024/01/24 12:30:49;;;;;;;13.20;7.40;;;;;;;-147.86;100.00;11910.34;105909;1251;60106;-47
2024/01/24 12:33:18;;;;;;;13.20;7.30;;;;;;;-147.86;100.00;12629.61;105922;1265;72903;-48
2024/01/24 12:35:47;;;;;;;11.70;7.40;;;;;;;-147.86;100.00;13036.31;105956;1256;65115;-47
2024/01/24 12:38:17;;;;;;;14.20;8.30;;;;;;;-147.86;100.00;12984.31;105951;1256;72652;-47
2024/01/24 12:40:51;;;;;;;11.50;7.30;;;;;;;-147.86;100.00;12903.73;105883;1256;60701;-47
2024/01/24 12:43:22;;;;;;;11.90;7.60;;;;;;;-147.86;100.00;11685.19;105952;1251;61923;-47
2024/01/24 12:45:53;;;;;;;10.30;7.50;;;;;;;-147.86;100.00;11982.78;105647;1261;73395;-47
2024/01/24 12:48:21;;;;;;;8.60;6.60;;;;;;;-147.86;100.00;12061.11;105715;1251;65951;-46
2024/01/24 12:50:52;;;;;;;12.00;7.70;;;;;;;-147.86;100.00;11720.50;105724;1257;73003;-45
2024/01/24 12:53:21;;;;;;;9.10;7.00;;;;;;;-147.86;100.00;11661.78;105779;1251;61232;-47
2024/01/24 12:55:50;;;;;;;9.70;6.90;;;;;;;-147.86;100.00;11544.92;105870;1256;59927;-46
2024/01/24 12:58:19;;;;;;;9.80;6.70;;;;;;;-147.86;100.00;11622.54;105910;1254;73150;-46
2024/01/24 13:00:47;;;;;;;11.30;7.10;;;;;;;-147.86;100.00;11620.65;105855;1257;64649;-47
2024/01/24 13:03:16;;;;;;;8.60;6.90;;;;;;;-147.86;100.00;11728.27;105862;1255;72495;-46
2024/01/24 13:05:48;;;;;;;14.00;7.70;;;;;;;-147.86;100.00;11439.47;105692;1257;60780;-47
2024/01/24 13:08:18;;;;;;;14.00;7.80;;;;;;;-147.86;100.00;11430.74;105849;1256;62302;-46
2024/01/24 13:10:47;;;;;;;13.00;7.50;;;;;;;-147.86;100.00;11398.78;105684;1254;74925;-48
2024/01/24 13:13:16;;;;;;;9.80;7.00;;;;;;;-147.86;100.00;11142.96;105758;1257;66328;-48
2024/01/24 13:28:50;;;;;;;;;;;;;;;-147.86;100.00;20556.79;102727;1294;600784;-46
2024/01/24 13:31:18;;;;;;;15.00;7.50;;;;;;;-147.86;100.00;-5269.65;105137;1270;61483;-47
2024/01/24 13:33:48;;;;;;;15.40;7.30;;;;;;;-147.86;100.00;-9592.73;104844;1267;62233;-47
2024/01/24 13:36:16;;;;;;;14.00;7.90;;;;;;;-147.86;100.00;-10391.79;104892;1267;74420;-47
2024/01/24 13:38:44;;;;;;;12.40;7.40;;;;;;;-147.86;100.00;-7503.29;104796;1269;65230;-47
2024/01/24 13:41:13;;;;;;;10.10;7.00;;;;;;;-147.86;100.00;-5114.37;104887;1270;72869;-46
2024/01/24 13:43:42;;;;;;;12.50;7.90;;;;;;;-147.86;100.00;-3283.46;105046;1266;184128;-47